sensor_id;sensor_type;location;lat;lon;timestamp;pressure;altitude;pressure_sealevel;temperature;humidity
48156;BME280;35568;48.104;11.782;2022-12-10T00:01:21;94016.59;;;3.21;50.76
48156;BME280;35568;48.104;11.782;2022-12-10T00:03:49;94025.65;;;3.21;50.69
48156;BME280;35568;48.104;11.782;2022-12-10T00:06:19;94026.37;;;2.86;51.57
48156;BME280;35568;48.104;11.782;2022-12-10T00:08:46;94015.72;;;3.11;51.60
48156;BME280;35568;48.104;11.782;2022-12-10T00:11:15;94017.27;;;3.14;51.54
48156;BME280;35568;48.104;11.782;2022-12-10T00:13:44;94019.93;;;3.45;51.01
48156;BME280;35568;48.104;11.782;2022-12-10T00:16:13;94021.12;;;2.91;51.38
48156;BME280;35568;48.104;11.782;2022-12-10T00:18:42;94019.87;;;3.56;50.74
48156;BME280;35568;48.104;11.782;2022-12-10T00:21:12;94019.05;;;3.51;50.81
48156;BME280;35568;48.104;11.782;2022-12-10T00:23:40;94018.78;;;3.54;50.78
48156;BME280;35568;48.104;11.782;2022-12-10T00:26:09;94019.30;;;3.33;50.51
48156;BME280;35568;48.104;11.782;2022-12-10T00:28:37;94016.54;;;3.00;50.50
48156;BME280;35568;48.104;11.782;2022-12-10T00:31:06;94015.70;;;3.27;50.46
48156;BME280;35568;48.104;11.782;2022-12-10T00:33:33;94017.05;;;3.47;50.27
48156;BME280;35568;48.104;11.782;2022-12-10T00:36:03;94016.41;;;3.36;50.77
48156;BME280;35568;48.104;11.782;2022-12-10T00:38:31;94017.95;;;3.02;50.61
48156;BME280;35568;48.104;11.782;2022-12-10T00:40:59;94017.47;;;3.50;50.62
48156;BME280;35568;48.104;11.782;2022-12-10T00:43:27;94020.76;;;3.26;50.58
48156;BME280;35568;48.104;11.782;2022-12-10T00:45:54;94017.99;;;3.60;50.60
48156;BME280;35568;48.104;11.782;2022-12-10T00:48:22;94019.00;;;3.60;50.53
48156;BME280;35568;48.104;11.782;2022-12-10T00:50:59;94026.69;;;2.95;50.58
48156;BME280;35568;48.104;11.782;2022-12-10T00:53:27;94026.12;;;3.01;50.33
48156;BME280;35568;48.104;11.782;2022-12-10T00:55:56;94028.06;;;3.01;51.35
48156;BME280;35568;48.104;11.782;2022-12-10T00:58:26;94035.54;;;3.11;50.86
48156;BME280;35568;48.104;11.782;2022-12-10T01:00:53;94042.10;;;3.15;51.29
48156;BME280;35568;48.104;11.782;2022-12-10T01:03:20;94049.87;;;3.35;51.47
48156;BME280;35568;48.104;11.782;2022-12-10T01:05:47;94049.89;;;3.26;50.82
48156;BME280;35568;48.104;11.782;2022-12-10T01:08:14;94052.16;;;3.49;50.96
48156;BME280;35568;48.104;11.782;2022-12-10T01:10:41;94056.87;;;3.04;50.70
48156;BME280;35568;48.104;11.782;2022-12-10T01:13:08;94060.39;;;3.35;50.91
48156;BME280;35568;48.104;11.782;2022-12-10T01:15:37;94055.57;;;3.15;50.77
48156;BME280;35568;48.104;11.782;2022-12-10T01:18:05;94053.64;;;2.95;50.77
48156;BME280;35568;48.104;11.782;2022-12-10T01:20:35;94051.86;;;3.34;51.00
48156;BME280;35568;48.104;11.782;2022-12-10T01:23:02;94052.09;;;3.37;51.07
48156;BME280;35568;48.104;11.782;2022-12-10T01:25:29;94047.54;;;3.17;51.17
48156;BME280;35568;48.104;11.782;2022-12-10T01:27:56;94041.53;;;3.43;51.15
48156;BME280;35568;48.104;11.782;2022-12-10T01:30:23;94037.80;;;2.90;51.11
48156;BME280;35568;48.104;11.782;2022-12-10T01:32:50;94035.46;;;3.35;51.15
48156;BME280;35568;48.104;11.782;2022-12-10T01:35:18;94043.88;;;3.22;51.76
48156;BME280;35568;48.104;11.782;2022-12-10T01:37:44;94040.94;;;3.29;51.22
48156;BME280;35568;48.104;11.782;2022-12-10T01:40:12;94044.23;;;3.28;51.41
48156;BME280;35568;48.104;11.782;2022-12-10T01:42:39;94046.69;;;3.20;51.33
48156;BME280;35568;48.104;11.782;2022-12-10T01:45:10;94048.56;;;3.10;51.45
48156;BME280;35568;48.104;11.782;2022-12-10T01:47:38;94049.71;;;3.34;51.32
48156;BME280;35568;48.104;11.782;2022-12-10T01:50:07;94051.99;;;3.42;51.34
48156;BME280;35568;48.104;11.782;2022-12-10T01:52:35;94056.92;;;3.30;51.24
48156;BME280;35568;48.104;11.782;2022-12-10T01:55:34;94060.70;;;3.25;51.18
48156;BME280;35568;48.104;11.782;2022-12-10T01:58:03;94073.94;;;3.21;51.48
48156;BME280;35568;48.104;11.782;2022-12-10T02:00:31;94078.98;;;3.29;51.18
48156;BME280;35568;48.104;11.782;2022-12-10T02:03:03;94080.23;;;3.28;51.00
48156;BME280;35568;48.104;11.782;2022-12-10T02:05:36;94082.75;;;3.03;50.97
48156;BME280;35568;48.104;11.782;2022-12-10T02:08:13;94081.39;;;2.73;50.96
48156;BME280;35568;48.104;11.782;2022-12-10T02:10:55;94081.90;;;3.22;50.94
48156;BME280;35568;48.104;11.782;2022-12-10T02:13:26;94081.27;;;3.22;50.92
48156;BME280;35568;48.104;11.782;2022-12-10T02:16:00;94080.28;;;3.14;51.38
48156;BME280;35568;48.104;11.782;2022-12-10T02:18:32;94080.45;;;3.27;51.34
48156;BME280;35568;48.104;11.782;2022-12-10T02:21:05;94069.77;;;3.33;51.54
48156;BME280;35568;48.104;11.782;2022-12-10T02:23:36;94065.26;;;2.96;51.34
48156;BME280;35568;48.104;11.782;2022-12-10T02:26:11;94071.01;;;3.00;51.29
48156;BME280;35568;48.104;11.782;2022-12-10T02:28:47;94072.81;;;3.07;51.59
48156;BME280;35568;48.104;11.782;2022-12-10T02:31:23;94074.72;;;3.14;51.53
48156;BME280;35568;48.104;11.782;2022-12-10T02:33:56;94064.65;;;2.79;51.45
48156;BME280;35568;48.104;11.782;2022-12-10T02:36:25;94060.45;;;3.08;51.29
48156;BME280;35568;48.104;11.782;2022-12-10T02:38:54;94055.08;;;2.84;51.48
48156;BME280;35568;48.104;11.782;2022-12-10T02:41:26;94056.68;;;3.03;51.20
48156;BME280;35568;48.104;11.782;2022-12-10T02:43:56;94062.31;;;3.10;51.73
48156;BME280;35568;48.104;11.782;2022-12-10T02:46:26;94057.56;;;2.93;51.84
48156;BME280;35568;48.104;11.782;2022-12-10T02:48:54;94058.29;;;3.22;51.70
48156;BME280;35568;48.104;11.782;2022-12-10T02:51:22;94060.24;;;2.93;51.62
48156;BME280;35568;48.104;11.782;2022-12-10T02:53:59;94059.05;;;2.89;51.65
48156;BME280;35568;48.104;11.782;2022-12-10T02:56:32;94057.96;;;3.19;51.53
48156;BME280;35568;48.104;11.782;2022-12-10T02:59:07;94055.74;;;3.27;51.48
48156;BME280;35568;48.104;11.782;2022-12-10T03:01:46;94050.54;;;3.26;51.65
48156;BME280;35568;48.104;11.782;2022-12-10T03:04:23;94047.62;;;3.02;51.92
48156;BME280;35568;48.104;11.782;2022-12-10T03:06:55;94040.92;;;3.38;51.49
48156;BME280;35568;48.104;11.782;2022-12-10T03:09:29;94039.94;;;2.88;51.35
48156;BME280;35568;48.104;11.782;2022-12-10T03:12:01;94041.62;;;3.27;51.61
48156;BME280;35568;48.104;11.782;2022-12-10T03:14:30;94039.38;;;3.30;51.45
48156;BME280;35568;48.104;11.782;2022-12-10T03:17:00;94033.93;;;3.35;51.41
48156;BME280;35568;48.104;11.782;2022-12-10T03:19:32;94036.24;;;3.32;51.77
48156;BME280;35568;48.104;11.782;2022-12-10T03:22:02;94034.08;;;3.42;51.57
48156;BME280;35568;48.104;11.782;2022-12-10T03:24:30;94040.89;;;3.49;51.54
48156;BME280;35568;48.104;11.782;2022-12-10T03:26:59;94047.10;;;3.50;51.33
48156;BME280;35568;48.104;11.782;2022-12-10T03:29:29;94045.16;;;3.48;50.92
48156;BME280;35568;48.104;11.782;2022-12-10T03:31:58;94046.54;;;3.34;51.29
48156;BME280;35568;48.104;11.782;2022-12-10T03:34:27;94045.61;;;3.42;51.50
48156;BME280;35568;48.104;11.782;2022-12-10T03:36:54;94044.02;;;3.44;51.52
48156;BME280;35568;48.104;11.782;2022-12-10T03:39:21;94039.64;;;3.25;51.79
48156;BME280;35568;48.104;11.782;2022-12-10T03:41:49;94044.47;;;2.89;52.03
48156;BME280;35568;48.104;11.782;2022-12-10T03:44:27;94044.42;;;2.94;52.06
48156;BME280;35568;48.104;11.782;2022-12-10T03:46:54;94043.55;;;2.97;52.17
48156;BME280;35568;48.104;11.782;2022-12-10T03:49:21;94045.55;;;3.04;52.11
48156;BME280;35568;48.104;11.782;2022-12-10T03:51:49;94047.22;;;2.94;52.01
48156;BME280;35568;48.104;11.782;2022-12-10T03:54:16;94046.97;;;3.01;52.13
48156;BME280;35568;48.104;11.782;2022-12-10T03:56:42;94043.50;;;3.08;52.04
48156;BME280;35568;48.104;11.782;2022-12-10T03:59:09;94036.21;;;3.23;51.80
48156;BME280;35568;48.104;11.782;2022-12-10T04:03:01;94035.23;;;3.10;50.99
48156;BME280;35568;48.104;11.782;2022-12-10T04:05:27;94042.31;;;2.98;51.17
48156;BME280;35568;48.104;11.782;2022-12-10T04:07:54;94045.71;;;3.29;51.21
48156;BME280;35568;48.104;11.782;2022-12-10T04:10:22;94037.69;;;3.06;51.67
48156;BME280;35568;48.104;11.782;2022-12-10T04:12:48;94035.99;;;3.35;51.84
48156;BME280;35568;48.104;11.782;2022-12-10T04:15:15;94042.17;;;3.07;51.55
48156;BME280;35568;48.104;11.782;2022-12-10T04:17:42;94048.13;;;3.07;51.08
48156;BME280;35568;48.104;11.782;2022-12-10T04:20:09;94050.82;;;2.81;51.70
48156;BME280;35568;48.104;11.782;2022-12-10T04:22:36;94048.30;;;2.86;51.83
48156;BME280;35568;48.104;11.782;2022-12-10T04:25:03;94049.14;;;3.17;51.46
48156;BME280;35568;48.104;11.782;2022-12-10T04:27:33;94052.74;;;3.14;51.47
48156;BME280;35568;48.104;11.782;2022-12-10T04:30:02;94061.10;;;3.17;51.60
48156;BME280;35568;48.104;11.782;2022-12-10T04:32:30;94063.71;;;3.18;51.68
48156;BME280;35568;48.104;11.782;2022-12-10T04:34:57;94056.61;;;3.11;51.51
48156;BME280;35568;48.104;11.782;2022-12-10T04:37:25;94049.68;;;3.10;52.09
48156;BME280;35568;48.104;11.782;2022-12-10T04:39:53;94049.14;;;2.94;51.68
48156;BME280;35568;48.104;11.782;2022-12-10T04:42:21;94049.81;;;2.90;52.03
48156;BME280;35568;48.104;11.782;2022-12-10T04:44:48;94047.33;;;2.84;52.14
48156;BME280;35568;48.104;11.782;2022-12-10T04:47:15;94044.63;;;2.74;51.76
48156;BME280;35568;48.104;11.782;2022-12-10T04:49:42;94046.92;;;2.86;51.86
48156;BME280;35568;48.104;11.782;2022-12-10T04:52:11;94051.24;;;2.82;51.96
48156;BME280;35568;48.104;11.782;2022-12-10T04:54:39;94051.40;;;2.71;52.12
48156;BME280;35568;48.104;11.782;2022-12-10T04:57:07;94053.15;;;2.84;52.12
48156;BME280;35568;48.104;11.782;2022-12-10T04:59:35;94053.73;;;2.83;52.30
48156;BME280;35568;48.104;11.782;2022-12-10T05:02:02;94054.04;;;2.85;52.40
48156;BME280;35568;48.104;11.782;2022-12-10T05:04:29;94054.54;;;2.86;52.12
48156;BME280;35568;48.104;11.782;2022-12-10T05:06:56;94058.80;;;2.69;52.15
48156;BME280;35568;48.104;11.782;2022-12-10T05:09:22;94056.34;;;2.83;52.53
48156;BME280;35568;48.104;11.782;2022-12-10T05:11:49;94055.17;;;2.81;52.39
48156;BME280;35568;48.104;11.782;2022-12-10T05:14:16;94046.91;;;2.93;52.06
48156;BME280;35568;48.104;11.782;2022-12-10T05:16:43;94045.65;;;2.89;52.13
48156;BME280;35568;48.104;11.782;2022-12-10T05:19:11;94049.93;;;2.75;52.32
48156;BME280;35568;48.104;11.782;2022-12-10T05:21:37;94053.60;;;2.89;52.46
48156;BME280;35568;48.104;11.782;2022-12-10T05:24:05;94046.23;;;2.65;52.26
48156;BME280;35568;48.104;11.782;2022-12-10T05:26:32;94046.65;;;2.49;52.53
48156;BME280;35568;48.104;11.782;2022-12-10T05:28:59;94050.57;;;2.29;52.58
48156;BME280;35568;48.104;11.782;2022-12-10T05:31:28;94051.26;;;2.37;52.62
48156;BME280;35568;48.104;11.782;2022-12-10T05:33:57;94057.06;;;2.07;52.77
48156;BME280;35568;48.104;11.782;2022-12-10T05:36:25;94059.04;;;2.66;52.28
48156;BME280;35568;48.104;11.782;2022-12-10T05:38:55;94055.09;;;2.53;52.65
48156;BME280;35568;48.104;11.782;2022-12-10T05:41:23;94055.74;;;2.27;52.81
48156;BME280;35568;48.104;11.782;2022-12-10T05:43:53;94055.08;;;2.45;52.40
48156;BME280;35568;48.104;11.782;2022-12-10T05:46:22;94059.35;;;2.35;52.59
48156;BME280;35568;48.104;11.782;2022-12-10T05:48:49;94057.56;;;2.43;52.48
48156;BME280;35568;48.104;11.782;2022-12-10T05:51:18;94058.09;;;2.47;52.52
48156;BME280;35568;48.104;11.782;2022-12-10T05:53:45;94061.68;;;2.50;52.36
48156;BME280;35568;48.104;11.782;2022-12-10T05:56:15;94064.29;;;2.48;52.30
48156;BME280;35568;48.104;11.782;2022-12-10T05:58:43;94067.37;;;2.50;52.25
48156;BME280;35568;48.104;11.782;2022-12-10T06:01:13;94070.41;;;2.53;52.22
48156;BME280;35568;48.104;11.782;2022-12-10T06:03:41;94072.97;;;2.42;52.07
48156;BME280;35568;48.104;11.782;2022-12-10T06:06:08;94075.97;;;2.42;52.23
48156;BME280;35568;48.104;11.782;2022-12-10T06:08:36;94075.13;;;2.47;52.10
48156;BME280;35568;48.104;11.782;2022-12-10T06:11:05;94073.56;;;2.56;51.97
48156;BME280;35568;48.104;11.782;2022-12-10T06:13:32;94071.92;;;2.73;52.02
48156;BME280;35568;48.104;11.782;2022-12-10T06:15:59;94079.77;;;2.82;51.34
48156;BME280;35568;48.104;11.782;2022-12-10T06:18:30;94080.46;;;2.85;51.53
48156;BME280;35568;48.104;11.782;2022-12-10T06:20:58;94081.76;;;2.55;51.56
48156;BME280;35568;48.104;11.782;2022-12-10T06:23:24;94081.98;;;2.74;51.41
48156;BME280;35568;48.104;11.782;2022-12-10T06:25:51;94083.69;;;2.37;51.70
48156;BME280;35568;48.104;11.782;2022-12-10T06:28:19;94079.62;;;2.56;51.85
48156;BME280;35568;48.104;11.782;2022-12-10T06:30:46;94077.11;;;2.59;51.52
48156;BME280;35568;48.104;11.782;2022-12-10T06:33:13;94075.60;;;2.51;51.75
48156;BME280;35568;48.104;11.782;2022-12-10T06:35:39;94081.09;;;2.54;51.63
48156;BME280;35568;48.104;11.782;2022-12-10T06:38:07;94074.40;;;2.75;51.82
48156;BME280;35568;48.104;11.782;2022-12-10T06:40:34;94071.84;;;2.49;51.75
48156;BME280;35568;48.104;11.782;2022-12-10T06:43:00;94075.65;;;2.38;51.67
48156;BME280;35568;48.104;11.782;2022-12-10T06:45:27;94076.69;;;2.40;51.75
48156;BME280;35568;48.104;11.782;2022-12-10T06:47:54;94077.81;;;2.43;52.22
48156;BME280;35568;48.104;11.782;2022-12-10T06:50:21;94083.10;;;2.27;52.00
48156;BME280;35568;48.104;11.782;2022-12-10T06:52:49;94083.89;;;2.64;52.17
48156;BME280;35568;48.104;11.782;2022-12-10T06:55:17;94088.79;;;2.59;51.76
48156;BME280;35568;48.104;11.782;2022-12-10T06:57:44;94091.10;;;2.55;51.55
48156;BME280;35568;48.104;11.782;2022-12-10T07:00:13;94091.39;;;2.35;51.85
48156;BME280;35568;48.104;11.782;2022-12-10T07:02:40;94093.26;;;2.26;51.99
48156;BME280;35568;48.104;11.782;2022-12-10T07:05:08;94096.37;;;2.52;52.24
48156;BME280;35568;48.104;11.782;2022-12-10T07:07:35;94095.10;;;2.66;51.98
48156;BME280;35568;48.104;11.782;2022-12-10T07:10:03;94095.17;;;2.44;51.73
48156;BME280;35568;48.104;11.782;2022-12-10T07:12:29;94095.34;;;2.71;51.84
48156;BME280;35568;48.104;11.782;2022-12-10T07:14:56;94090.36;;;2.48;51.37
48156;BME280;35568;48.104;11.782;2022-12-10T07:17:24;94084.61;;;2.42;51.68
48156;BME280;35568;48.104;11.782;2022-12-10T07:19:51;94086.05;;;2.47;52.31
48156;BME280;35568;48.104;11.782;2022-12-10T07:22:17;94090.18;;;2.68;51.86
48156;BME280;35568;48.104;11.782;2022-12-10T07:24:45;94091.27;;;2.53;51.43
48156;BME280;35568;48.104;11.782;2022-12-10T07:27:12;94091.09;;;2.94;51.40
48156;BME280;35568;48.104;11.782;2022-12-10T07:29:39;94085.71;;;2.87;51.24
48156;BME280;35568;48.104;11.782;2022-12-10T07:32:06;94083.32;;;2.98;51.28
48156;BME280;35568;48.104;11.782;2022-12-10T07:34:33;94079.64;;;2.89;51.21
48156;BME280;35568;48.104;11.782;2022-12-10T07:36:59;94076.74;;;2.93;51.03
48156;BME280;35568;48.104;11.782;2022-12-10T07:39:27;94077.83;;;2.80;51.22
48156;BME280;35568;48.104;11.782;2022-12-10T07:41:54;94076.47;;;2.75;51.50
48156;BME280;35568;48.104;11.782;2022-12-10T07:44:23;94078.57;;;2.81;51.19
48156;BME280;35568;48.104;11.782;2022-12-10T07:46:51;94084.29;;;2.94;50.90
48156;BME280;35568;48.104;11.782;2022-12-10T07:49:19;94088.69;;;3.12;50.98
48156;BME280;35568;48.104;11.782;2022-12-10T07:51:46;94089.46;;;3.12;51.07
48156;BME280;35568;48.104;11.782;2022-12-10T07:54:14;94086.58;;;3.16;50.81
48156;BME280;35568;48.104;11.782;2022-12-10T07:56:41;94089.38;;;3.19;50.71
48156;BME280;35568;48.104;11.782;2022-12-10T07:59:12;94090.80;;;2.77;50.67
48156;BME280;35568;48.104;11.782;2022-12-10T08:01:42;94090.34;;;3.17;50.51
48156;BME280;35568;48.104;11.782;2022-12-10T08:04:09;94084.31;;;2.87;50.61
48156;BME280;35568;48.104;11.782;2022-12-10T08:06:36;94085.03;;;2.91;50.75
48156;BME280;35568;48.104;11.782;2022-12-10T08:09:03;94085.08;;;2.88;50.81
48156;BME280;35568;48.104;11.782;2022-12-10T08:11:30;94087.59;;;2.97;50.72
48156;BME280;35568;48.104;11.782;2022-12-10T08:13:57;94086.00;;;2.98;50.98
48156;BME280;35568;48.104;11.782;2022-12-10T08:16:26;94084.08;;;3.17;50.71
48156;BME280;35568;48.104;11.782;2022-12-10T08:18:54;94087.00;;;3.21;50.50
48156;BME280;35568;48.104;11.782;2022-12-10T08:21:23;94089.49;;;3.33;50.47
48156;BME280;35568;48.104;11.782;2022-12-10T08:23:51;94090.70;;;2.91;50.36
48156;BME280;35568;48.104;11.782;2022-12-10T08:26:20;94093.51;;;3.09;50.55
48156;BME280;35568;48.104;11.782;2022-12-10T08:28:48;94098.00;;;3.24;50.64
48156;BME280;35568;48.104;11.782;2022-12-10T08:31:16;94097.94;;;3.32;51.94
48156;BME280;35568;48.104;11.782;2022-12-10T08:33:44;94093.37;;;2.87;50.31
48156;BME280;35568;48.104;11.782;2022-12-10T08:36:13;94094.74;;;2.83;50.62
48156;BME280;35568;48.104;11.782;2022-12-10T08:38:40;94094.60;;;2.76;51.06
48156;BME280;35568;48.104;11.782;2022-12-10T08:41:09;94099.39;;;2.82;51.15
48156;BME280;35568;48.104;11.782;2022-12-10T08:43:36;94101.32;;;2.50;51.20
48156;BME280;35568;48.104;11.782;2022-12-10T08:46:04;94104.56;;;2.46;51.54
48156;BME280;35568;48.104;11.782;2022-12-10T08:48:33;94108.43;;;2.46;51.98
48156;BME280;35568;48.104;11.782;2022-12-10T08:51:01;94110.26;;;2.66;51.70
48156;BME280;35568;48.104;11.782;2022-12-10T08:53:29;94114.20;;;2.63;51.31
48156;BME280;35568;48.104;11.782;2022-12-10T08:55:56;94113.85;;;2.90;51.03
48156;BME280;35568;48.104;11.782;2022-12-10T08:58:22;94114.34;;;2.87;51.13
48156;BME280;35568;48.104;11.782;2022-12-10T09:00:50;94113.83;;;2.86;51.46
48156;BME280;35568;48.104;11.782;2022-12-10T09:03:17;94115.17;;;2.91;51.54
48156;BME280;35568;48.104;11.782;2022-12-10T09:05:45;94112.92;;;3.10;51.17
48156;BME280;35568;48.104;11.782;2022-12-10T09:08:12;94113.88;;;3.10;50.84
48156;BME280;35568;48.104;11.782;2022-12-10T09:10:40;94117.43;;;3.28;50.75
48156;BME280;35568;48.104;11.782;2022-12-10T09:13:07;94118.18;;;3.39;50.54
48156;BME280;35568;48.104;11.782;2022-12-10T09:15:34;94120.04;;;2.92;50.70
48156;BME280;35568;48.104;11.782;2022-12-10T09:18:02;94123.97;;;2.63;50.54
48156;BME280;35568;48.104;11.782;2022-12-10T09:20:32;94126.90;;;3.26;50.67
48156;BME280;35568;48.104;11.782;2022-12-10T09:22:59;94128.17;;;3.06;49.82
48156;BME280;35568;48.104;11.782;2022-12-10T09:25:26;94131.08;;;2.93;49.73
48156;BME280;35568;48.104;11.782;2022-12-10T09:27:53;94132.48;;;2.71;50.43
48156;BME280;35568;48.104;11.782;2022-12-10T09:30:19;94133.44;;;2.88;50.88
48156;BME280;35568;48.104;11.782;2022-12-10T09:32:46;94139.02;;;2.45;51.20
48156;BME280;35568;48.104;11.782;2022-12-10T09:35:13;94138.06;;;2.66;51.04
48156;BME280;35568;48.104;11.782;2022-12-10T09:37:40;94136.52;;;2.34;51.81
48156;BME280;35568;48.104;11.782;2022-12-10T09:40:10;94133.10;;;2.28;51.32
48156;BME280;35568;48.104;11.782;2022-12-10T09:42:45;94134.26;;;2.36;51.44
48156;BME280;35568;48.104;11.782;2022-12-10T09:45:21;94133.18;;;2.07;52.21
48156;BME280;35568;48.104;11.782;2022-12-10T09:47:57;94131.86;;;2.47;52.24
48156;BME280;35568;48.104;11.782;2022-12-10T09:50:31;94132.02;;;2.81;51.89
48156;BME280;35568;48.104;11.782;2022-12-10T09:53:01;94136.27;;;3.00;51.74
48156;BME280;35568;48.104;11.782;2022-12-10T09:55:33;94137.98;;;2.93;51.35
48156;BME280;35568;48.104;11.782;2022-12-10T09:58:03;94134.41;;;2.98;51.59
48156;BME280;35568;48.104;11.782;2022-12-10T10:00:35;94132.35;;;2.95;50.39
48156;BME280;35568;48.104;11.782;2022-12-10T10:03:04;94134.08;;;2.90;50.96
48156;BME280;35568;48.104;11.782;2022-12-10T10:05:37;94133.44;;;2.49;51.75
48156;BME280;35568;48.104;11.782;2022-12-10T10:08:11;94131.57;;;2.54;51.57
48156;BME280;35568;48.104;11.782;2022-12-10T10:10:40;94128.07;;;2.81;51.59
48156;BME280;35568;48.104;11.782;2022-12-10T10:13:16;94127.27;;;2.84;51.70
48156;BME280;35568;48.104;11.782;2022-12-10T10:15:46;94126.06;;;2.66;52.01
48156;BME280;35568;48.104;11.782;2022-12-10T10:18:17;94125.67;;;2.79;51.77
48156;BME280;35568;48.104;11.782;2022-12-10T10:20:49;94123.52;;;2.62;51.92
48156;BME280;35568;48.104;11.782;2022-12-10T10:23:16;94122.47;;;2.69;52.04
48156;BME280;35568;48.104;11.782;2022-12-10T10:25:43;94123.78;;;2.86;51.51
48156;BME280;35568;48.104;11.782;2022-12-10T10:28:12;94120.07;;;2.46;51.86
48156;BME280;35568;48.104;11.782;2022-12-10T10:30:44;94118.92;;;2.59;52.07
48156;BME280;35568;48.104;11.782;2022-12-10T10:33:13;94121.32;;;2.51;52.13
48156;BME280;35568;48.104;11.782;2022-12-10T10:35:43;94122.56;;;2.55;52.49
48156;BME280;35568;48.104;11.782;2022-12-10T10:38:17;94128.43;;;2.44;52.25
48156;BME280;35568;48.104;11.782;2022-12-10T10:40:48;94127.54;;;2.35;52.26
48156;BME280;35568;48.104;11.782;2022-12-10T10:43:20;94127.46;;;2.38;52.46
48156;BME280;35568;48.104;11.782;2022-12-10T10:45:51;94128.73;;;2.40;53.00
48156;BME280;35568;48.104;11.782;2022-12-10T10:48:20;94122.68;;;2.44;52.40
48156;BME280;35568;48.104;11.782;2022-12-10T10:50:50;94119.74;;;2.59;52.72
48156;BME280;35568;48.104;11.782;2022-12-10T10:53:28;94119.43;;;2.60;52.11
48156;BME280;35568;48.104;11.782;2022-12-10T10:55:58;94118.22;;;2.18;52.52
48156;BME280;35568;48.104;11.782;2022-12-10T10:58:26;94117.47;;;2.23;53.10
48156;BME280;35568;48.104;11.782;2022-12-10T11:00:56;94112.41;;;2.50;53.28
48156;BME280;35568;48.104;11.782;2022-12-10T11:03:24;94103.06;;;2.16;53.10
48156;BME280;35568;48.104;11.782;2022-12-10T11:05:51;94096.42;;;2.09;53.51
48156;BME280;35568;48.104;11.782;2022-12-10T11:08:19;94099.50;;;2.33;53.42
48156;BME280;35568;48.104;11.782;2022-12-10T11:10:47;94101.61;;;2.51;52.93
48156;BME280;35568;48.104;11.782;2022-12-10T11:13:22;94100.14;;;2.65;52.27
48156;BME280;35568;48.104;11.782;2022-12-10T11:15:56;94100.05;;;2.61;52.23
48156;BME280;35568;48.104;11.782;2022-12-10T11:18:30;94101.16;;;2.54;52.58
48156;BME280;35568;48.104;11.782;2022-12-10T11:21:00;94103.54;;;2.58;52.88
48156;BME280;35568;48.104;11.782;2022-12-10T11:23:30;94097.16;;;2.45;53.13
48156;BME280;35568;48.104;11.782;2022-12-10T11:26:05;94099.00;;;2.34;52.95
48156;BME280;35568;48.104;11.782;2022-12-10T11:28:46;94097.56;;;2.43;52.86
48156;BME280;35568;48.104;11.782;2022-12-10T11:31:31;94097.71;;;2.53;53.16
48156;BME280;35568;48.104;11.782;2022-12-10T11:34:08;94098.83;;;2.67;52.05
48156;BME280;35568;48.104;11.782;2022-12-10T11:36:46;94101.83;;;2.57;52.58
48156;BME280;35568;48.104;11.782;2022-12-10T11:39:30;94104.48;;;2.37;52.41
48156;BME280;35568;48.104;11.782;2022-12-10T11:42:07;94108.04;;;2.26;53.16
48156;BME280;35568;48.104;11.782;2022-12-10T11:44:43;94102.08;;;1.99;53.34
48156;BME280;35568;48.104;11.782;2022-12-10T11:47:27;94095.12;;;2.22;53.30
48156;BME280;35568;48.104;11.782;2022-12-10T11:50:07;94094.07;;;2.72;53.01
48156;BME280;35568;48.104;11.782;2022-12-10T11:52:47;94093.28;;;3.08;52.38
48156;BME280;35568;48.104;11.782;2022-12-10T11:55:27;94096.90;;;2.98;52.21
48156;BME280;35568;48.104;11.782;2022-12-10T11:58:14;94099.42;;;3.34;51.04
48156;BME280;35568;48.104;11.782;2022-12-10T12:00:49;94094.20;;;2.67;51.35
48156;BME280;35568;48.104;11.782;2022-12-10T12:03:36;94096.63;;;2.55;52.73
48156;BME280;35568;48.104;11.782;2022-12-10T12:06:32;94094.50;;;2.32;52.56
48156;BME280;35568;48.104;11.782;2022-12-10T12:09:09;94094.93;;;2.45;52.60
48156;BME280;35568;48.104;11.782;2022-12-10T12:11:52;94095.48;;;2.51;52.61
48156;BME280;35568;48.104;11.782;2022-12-10T12:14:25;94098.54;;;2.79;52.62
48156;BME280;35568;48.104;11.782;2022-12-10T12:17:02;94103.53;;;2.83;52.46
48156;BME280;35568;48.104;11.782;2022-12-10T12:19:34;94106.57;;;2.90;51.95
48156;BME280;35568;48.104;11.782;2022-12-10T12:22:12;94105.75;;;2.85;51.87
48156;BME280;35568;48.104;11.782;2022-12-10T12:24:42;94107.67;;;2.87;52.21
48156;BME280;35568;48.104;11.782;2022-12-10T12:27:16;94109.27;;;2.69;52.48
48156;BME280;35568;48.104;11.782;2022-12-10T12:29:54;94111.06;;;3.03;52.13
48156;BME280;35568;48.104;11.782;2022-12-10T12:32:27;94111.55;;;3.33;52.19
48156;BME280;35568;48.104;11.782;2022-12-10T12:34:59;94114.64;;;3.21;51.31
48156;BME280;35568;48.104;11.782;2022-12-10T12:37:34;94121.68;;;3.03;51.24
48156;BME280;35568;48.104;11.782;2022-12-10T12:40:10;94123.81;;;3.00;51.98
48156;BME280;35568;48.104;11.782;2022-12-10T12:42:46;94123.82;;;2.85;51.84
48156;BME280;35568;48.104;11.782;2022-12-10T12:45:19;94125.22;;;2.79;52.01
48156;BME280;35568;48.104;11.782;2022-12-10T12:47:50;94129.10;;;2.76;52.73
48156;BME280;35568;48.104;11.782;2022-12-10T12:50:26;94135.00;;;3.05;52.28
48156;BME280;35568;48.104;11.782;2022-12-10T12:52:58;94135.19;;;2.88;51.86
48156;BME280;35568;48.104;11.782;2022-12-10T12:55:32;94137.23;;;2.98;52.36
48156;BME280;35568;48.104;11.782;2022-12-10T12:58:15;94134.37;;;2.94;52.03
48156;BME280;35568;48.104;11.782;2022-12-10T13:00:50;94130.13;;;2.83;52.08
48156;BME280;35568;48.104;11.782;2022-12-10T13:03:29;94137.26;;;2.85;52.33
48156;BME280;35568;48.104;11.782;2022-12-10T13:06:12;94134.78;;;2.72;52.48
48156;BME280;35568;48.104;11.782;2022-12-10T13:08:45;94134.69;;;2.08;52.69
48156;BME280;35568;48.104;11.782;2022-12-10T13:11:28;94133.99;;;2.56;53.86
48156;BME280;35568;48.104;11.782;2022-12-10T13:14:13;94139.48;;;2.14;53.46
48156;BME280;35568;48.104;11.782;2022-12-10T13:16:49;94142.41;;;2.55;53.08